Aérodrome :
LOGIN :

S'inscrire | Disclaimer

   EN    FR    IT 

 










Légende :    VFR   VFR Marginal   IFR   IFR Intensif   IFR Très Intensif
Visi : 
Plafond : 
>= 8 km
>= 3000ft
5 à 8 km
1000 à 3000 ft
1500m à 5 km
500 à 1000 ft
800 à 1500m
200 à 500 ft
< 800m
< 200 ft
Symboles :   Orages  Brouillard  Fortes neiges  Fortes précipitations  Vent > 20 kt
SIGMETs :   Divers  Orages  Givrage  Turbulence  Onde Orograph.  Cendres Volcan.







- Altitude de l'aérodrome : 204 ft
- Code IATA : AGF
- Voir les cartes d'approche


LFBA - Agen

DERNIER METAR :
  • 181130Z AUTO VRB02KT 0550 0450 R29/0900U FG VV/// 05/05 Q1025 BECMG CAVOK

METARs EXPIRÉS :
  • 181100Z AUTO 32003KT 280V360 0350 0300 R29/0550N FG VV/// 04/04 Q1025 BECMG CAVOK
  • 181030Z AUTO VRB02KT 0300 0250 R29/0375N FG VV/// 04/03 Q1025 BECMG CAVOK
  • 181000Z AUTO VRB02KT 0300 0250 R29/0400N FG VV/// 03/03 Q1025 BECMG CAVOK
  • 180930Z AUTO VRB01KT 0250 0200 R29/0325N FG VV/// 02/02 Q1025 BECMG CAVOK

TAF TAF LFBA
Valide du 18 à 12h jusqu'au 18 à 21h UTC


181100Z 1812/1821 VRB02KT 3000 BR NSC
BECMG 1812/1814 CAVOK
Pas de NOTAMs connus pour ce terrain.



MET'MAP, la Météo Aéronautique d'un coup d'oeil ! - Copyright ORBIFLY Décembre 2007 - Disclaimer

ORBIFLY MET'MAP TEAM :

Programmation & Développement : Alexandra Zaïnal
Conception & Développement : Baudouin d'Aumeries
Co-Programmation & Développement : Marc-Olivier Méhu
Soutien technique & logistique : Manuel Goepfert

Contact : metmap@orbifly.com




SOURCES & CREDITS :

   NOAA